sensor_id;sensor_type;location;lat;lon;timestamp;temperature;humidity
23147;DHT22;11742;53.532;-1.478;2023-05-07T00:00:56;19.00;83.90
23147;DHT22;11742;53.532;-1.478;2023-05-07T00:03:40;19.00;83.90
23147;DHT22;11742;53.532;-1.478;2023-05-07T00:06:24;19.00;84.00
23147;DHT22;11742;53.532;-1.478;2023-05-07T00:09:10;19.00;84.00
23147;DHT22;11742;53.532;-1.478;2023-05-07T00:11:54;19.00;84.10
23147;DHT22;11742;53.532;-1.478;2023-05-07T00:14:39;19.00;84.00
23147;DHT22;11742;53.532;-1.478;2023-05-07T00:17:23;19.00;84.10
23147;DHT22;11742;53.532;-1.478;2023-05-07T00:20:07;19.00;84.10
23147;DHT22;11742;53.532;-1.478;2023-05-07T00:22:51;18.90;84.10
23147;DHT22;11742;53.532;-1.478;2023-05-07T00:25:35;19.00;84.10
23147;DHT22;11742;53.532;-1.478;2023-05-07T00:28:20;19.00;84.10
23147;DHT22;11742;53.532;-1.478;2023-05-07T00:31:04;19.00;84.10
23147;DHT22;11742;53.532;-1.478;2023-05-07T00:33:48;18.90;84.10
23147;DHT22;11742;53.532;-1.478;2023-05-07T00:36:32;18.90;84.10
23147;DHT22;11742;53.532;-1.478;2023-05-07T00:39:17;18.90;84.20
23147;DHT22;11742;53.532;-1.478;2023-05-07T00:42:01;18.90;84.20
23147;DHT22;11742;53.532;-1.478;2023-05-07T00:44:46;18.90;84.20
23147;DHT22;11742;53.532;-1.478;2023-05-07T00:47:30;18.90;84.20
23147;DHT22;11742;53.532;-1.478;2023-05-07T00:50:14;18.90;84.40
23147;DHT22;11742;53.532;-1.478;2023-05-07T00:52:59;18.90;84.40
23147;DHT22;11742;53.532;-1.478;2023-05-07T00:55:44;18.90;84.40
23147;DHT22;11742;53.532;-1.478;2023-05-07T00:58:28;18.90;84.50
23147;DHT22;11742;53.532;-1.478;2023-05-07T01:01:12;18.80;84.40
23147;DHT22;11742;53.532;-1.478;2023-05-07T01:03:56;18.80;84.30
23147;DHT22;11742;53.532;-1.478;2023-05-07T01:06:41;18.80;84.50
23147;DHT22;11742;53.532;-1.478;2023-05-07T01:09:25;18.80;84.50
23147;DHT22;11742;53.532;-1.478;2023-05-07T01:12:10;18.80;84.50
23147;DHT22;11742;53.532;-1.478;2023-05-07T01:14:54;18.80;84.50
23147;DHT22;11742;53.532;-1.478;2023-05-07T01:17:39;18.80;84.70
23147;DHT22;11742;53.532;-1.478;2023-05-07T01:20:23;18.80;84.70
23147;DHT22;11742;53.532;-1.478;2023-05-07T01:23:08;18.80;84.70
23147;DHT22;11742;53.532;-1.478;2023-05-07T01:25:53;18.80;84.70
23147;DHT22;11742;53.532;-1.478;2023-05-07T01:28:37;18.70;84.70
23147;DHT22;11742;53.532;-1.478;2023-05-07T01:31:21;18.80;84.90
23147;DHT22;11742;53.532;-1.478;2023-05-07T01:34:06;18.70;84.80
23147;DHT22;11742;53.532;-1.478;2023-05-07T01:36:52;18.80;84.90
23147;DHT22;11742;53.532;-1.478;2023-05-07T01:39:37;18.70;84.80
23147;DHT22;11742;53.532;-1.478;2023-05-07T01:42:23;18.70;84.80
23147;DHT22;11742;53.532;-1.478;2023-05-07T01:45:07;18.70;84.80
23147;DHT22;11742;53.532;-1.478;2023-05-07T01:47:51;18.70;84.80
23147;DHT22;11742;53.532;-1.478;2023-05-07T01:50:36;18.70;84.80
23147;DHT22;11742;53.532;-1.478;2023-05-07T01:53:21;18.70;84.90
23147;DHT22;11742;53.532;-1.478;2023-05-07T01:56:05;18.70;85.00
23147;DHT22;11742;53.532;-1.478;2023-05-07T01:58:49;18.70;84.90
23147;DHT22;11742;53.532;-1.478;2023-05-07T02:01:35;18.70;85.00
23147;DHT22;11742;53.532;-1.478;2023-05-07T02:04:19;18.70;85.00
23147;DHT22;11742;53.532;-1.478;2023-05-07T02:07:03;18.60;85.00
23147;DHT22;11742;53.532;-1.478;2023-05-07T02:09:47;18.70;85.10
23147;DHT22;11742;53.532;-1.478;2023-05-07T02:12:31;18.70;85.10
23147;DHT22;11742;53.532;-1.478;2023-05-07T02:15:16;18.60;85.10
23147;DHT22;11742;53.532;-1.478;2023-05-07T02:20:44;18.60;85.20
23147;DHT22;11742;53.532;-1.478;2023-05-07T02:23:28;18.60;85.30
23147;DHT22;11742;53.532;-1.478;2023-05-07T02:26:12;18.60;85.30
23147;DHT22;11742;53.532;-1.478;2023-05-07T02:28:57;18.60;85.30
23147;DHT22;11742;53.532;-1.478;2023-05-07T02:31:41;18.60;85.30
23147;DHT22;11742;53.532;-1.478;2023-05-07T02:34:26;18.60;85.30
23147;DHT22;11742;53.532;-1.478;2023-05-07T02:37:10;18.60;85.30
23147;DHT22;11742;53.532;-1.478;2023-05-07T02:39:54;18.50;85.40
23147;DHT22;11742;53.532;-1.478;2023-05-07T02:42:39;18.60;85.50
23147;DHT22;11742;53.532;-1.478;2023-05-07T02:45:23;18.50;85.50
23147;DHT22;11742;53.532;-1.478;2023-05-07T02:48:07;18.60;85.60
23147;DHT22;11742;53.532;-1.478;2023-05-07T02:50:51;18.60;85.70
23147;DHT22;11742;53.532;-1.478;2023-05-07T02:53:36;18.60;85.60
23147;DHT22;11742;53.532;-1.478;2023-05-07T02:56:25;18.60;85.70
23147;DHT22;11742;53.532;-1.478;2023-05-07T02:59:09;18.60;85.70
23147;DHT22;11742;53.532;-1.478;2023-05-07T03:01:54;18.60;85.80
23147;DHT22;11742;53.532;-1.478;2023-05-07T03:04:39;18.50;85.70
23147;DHT22;11742;53.532;-1.478;2023-05-07T03:07:23;18.50;85.70
23147;DHT22;11742;53.532;-1.478;2023-05-07T03:10:07;18.50;85.80
23147;DHT22;11742;53.532;-1.478;2023-05-07T03:12:51;18.50;86.30
23147;DHT22;11742;53.532;-1.478;2023-05-07T03:15:35;18.50;85.80
23147;DHT22;11742;53.532;-1.478;2023-05-07T03:18:20;18.50;85.90
23147;DHT22;11742;53.532;-1.478;2023-05-07T03:21:04;18.50;85.90
23147;DHT22;11742;53.532;-1.478;2023-05-07T03:23:48;18.50;85.90
23147;DHT22;11742;53.532;-1.478;2023-05-07T03:26:33;18.50;85.90
23147;DHT22;11742;53.532;-1.478;2023-05-07T03:29:17;18.50;85.90
23147;DHT22;11742;53.532;-1.478;2023-05-07T03:32:04;18.50;86.00
23147;DHT22;11742;53.532;-1.478;2023-05-07T03:34:49;18.50;86.00
23147;DHT22;11742;53.532;-1.478;2023-05-07T03:37:33;18.50;86.10
23147;DHT22;11742;53.532;-1.478;2023-05-07T03:40:17;18.50;86.10
23147;DHT22;11742;53.532;-1.478;2023-05-07T03:43:02;18.50;86.20
23147;DHT22;11742;53.532;-1.478;2023-05-07T03:45:46;18.50;86.30
23147;DHT22;11742;53.532;-1.478;2023-05-07T03:48:30;18.50;86.20
23147;DHT22;11742;53.532;-1.478;2023-05-07T03:51:15;18.50;86.30
23147;DHT22;11742;53.532;-1.478;2023-05-07T03:53:59;18.50;86.30
23147;DHT22;11742;53.532;-1.478;2023-05-07T03:56:43;18.50;86.30
23147;DHT22;11742;53.532;-1.478;2023-05-07T03:59:27;18.50;86.40
23147;DHT22;11742;53.532;-1.478;2023-05-07T04:02:11;18.50;86.30
23147;DHT22;11742;53.532;-1.478;2023-05-07T04:04:56;18.40;86.20
23147;DHT22;11742;53.532;-1.478;2023-05-07T04:07:40;18.40;86.30
23147;DHT22;11742;53.532;-1.478;2023-05-07T04:10:24;18.40;86.30
23147;DHT22;11742;53.532;-1.478;2023-05-07T04:13:09;18.40;86.30
23147;DHT22;11742;53.532;-1.478;2023-05-07T04:15:54;18.40;86.40
23147;DHT22;11742;53.532;-1.478;2023-05-07T04:18:39;18.40;86.50
23147;DHT22;11742;53.532;-1.478;2023-05-07T04:21:23;18.40;86.40
23147;DHT22;11742;53.532;-1.478;2023-05-07T04:24:10;18.40;86.40
23147;DHT22;11742;53.532;-1.478;2023-05-07T04:26:55;18.40;86.50
23147;DHT22;11742;53.532;-1.478;2023-05-07T04:29:39;18.40;86.50
23147;DHT22;11742;53.532;-1.478;2023-05-07T04:32:26;18.40;86.50
23147;DHT22;11742;53.532;-1.478;2023-05-07T04:35:10;18.40;86.50
23147;DHT22;11742;53.532;-1.478;2023-05-07T04:37:56;18.40;86.50
23147;DHT22;11742;53.532;-1.478;2023-05-07T04:40:41;18.40;86.50
23147;DHT22;11742;53.532;-1.478;2023-05-07T04:43:25;18.40;86.50
23147;DHT22;11742;53.532;-1.478;2023-05-07T04:46:09;18.40;86.50
23147;DHT22;11742;53.532;-1.478;2023-05-07T04:48:54;18.40;86.50
23147;DHT22;11742;53.532;-1.478;2023-05-07T04:51:44;18.40;86.50
23147;DHT22;11742;53.532;-1.478;2023-05-07T04:54:28;18.40;86.50
23147;DHT22;11742;53.532;-1.478;2023-05-07T04:57:15;18.30;86.50
23147;DHT22;11742;53.532;-1.478;2023-05-07T05:00:01;18.30;86.50
23147;DHT22;11742;53.532;-1.478;2023-05-07T05:02:45;18.40;86.50
23147;DHT22;11742;53.532;-1.478;2023-05-07T05:05:29;18.30;86.40
23147;DHT22;11742;53.532;-1.478;2023-05-07T05:08:13;18.30;86.50
23147;DHT22;11742;53.532;-1.478;2023-05-07T05:10:58;18.30;86.60
23147;DHT22;11742;53.532;-1.478;2023-05-07T05:13:42;18.30;86.60
23147;DHT22;11742;53.532;-1.478;2023-05-07T05:16:26;18.30;86.60
23147;DHT22;11742;53.532;-1.478;2023-05-07T05:19:13;18.30;86.60
23147;DHT22;11742;53.532;-1.478;2023-05-07T05:21:57;18.30;86.70
23147;DHT22;11742;53.532;-1.478;2023-05-07T05:24:42;18.30;86.80
23147;DHT22;11742;53.532;-1.478;2023-05-07T05:27:29;18.30;86.80
23147;DHT22;11742;53.532;-1.478;2023-05-07T05:30:16;18.30;86.90
23147;DHT22;11742;53.532;-1.478;2023-05-07T05:33:04;18.30;86.90
23147;DHT22;11742;53.532;-1.478;2023-05-07T05:35:49;18.30;86.90
23147;DHT22;11742;53.532;-1.478;2023-05-07T05:38:39;18.30;86.90
23147;DHT22;11742;53.532;-1.478;2023-05-07T05:41:24;18.30;87.00
23147;DHT22;11742;53.532;-1.478;2023-05-07T05:44:08;18.30;87.10
23147;DHT22;11742;53.532;-1.478;2023-05-07T05:46:56;18.30;87.20
23147;DHT22;11742;53.532;-1.478;2023-05-07T05:49:44;18.30;87.20
23147;DHT22;11742;53.532;-1.478;2023-05-07T05:52:32;18.30;87.20
23147;DHT22;11742;53.532;-1.478;2023-05-07T05:55:19;18.30;87.30
23147;DHT22;11742;53.532;-1.478;2023-05-07T05:58:03;18.30;87.40
23147;DHT22;11742;53.532;-1.478;2023-05-07T06:00:51;18.30;87.40
23147;DHT22;11742;53.532;-1.478;2023-05-07T06:03:36;18.30;87.50
23147;DHT22;11742;53.532;-1.478;2023-05-07T06:06:23;18.30;87.60
23147;DHT22;11742;53.532;-1.478;2023-05-07T06:09:08;18.40;87.70
23147;DHT22;11742;53.532;-1.478;2023-05-07T06:11:52;18.30;87.90
23147;DHT22;11742;53.532;-1.478;2023-05-07T06:14:36;18.30;88.00
23147;DHT22;11742;53.532;-1.478;2023-05-07T06:17:24;18.40;88.10
23147;DHT22;11742;53.532;-1.478;2023-05-07T06:20:11;18.30;88.10
23147;DHT22;11742;53.532;-1.478;2023-05-07T06:22:58;18.40;88.30
23147;DHT22;11742;53.532;-1.478;2023-05-07T06:25:45;18.40;88.30
23147;DHT22;11742;53.532;-1.478;2023-05-07T06:28:29;18.30;88.30
23147;DHT22;11742;53.532;-1.478;2023-05-07T06:31:19;18.40;88.40
23147;DHT22;11742;53.532;-1.478;2023-05-07T06:34:07;18.40;88.50
23147;DHT22;11742;53.532;-1.478;2023-05-07T06:36:51;18.40;88.50
23147;DHT22;11742;53.532;-1.478;2023-05-07T06:39:35;18.40;88.60
23147;DHT22;11742;53.532;-1.478;2023-05-07T06:42:19;18.40;88.50
23147;DHT22;11742;53.532;-1.478;2023-05-07T06:45:04;18.40;88.50
23147;DHT22;11742;53.532;-1.478;2023-05-07T06:47:51;18.40;88.60
23147;DHT22;11742;53.532;-1.478;2023-05-07T06:50:35;18.40;88.80
23147;DHT22;11742;53.532;-1.478;2023-05-07T06:53:23;18.40;88.80
23147;DHT22;11742;53.532;-1.478;2023-05-07T06:56:07;18.40;88.90
23147;DHT22;11742;53.532;-1.478;2023-05-07T06:58:51;18.40;89.00
23147;DHT22;11742;53.532;-1.478;2023-05-07T07:01:36;18.40;88.80
23147;DHT22;11742;53.532;-1.478;2023-05-07T07:04:20;18.40;88.70
23147;DHT22;11742;53.532;-1.478;2023-05-07T07:07:07;18.40;88.80
23147;DHT22;11742;53.532;-1.478;2023-05-07T07:09:51;18.40;88.80
23147;DHT22;11742;53.532;-1.478;2023-05-07T07:12:35;18.50;89.00
23147;DHT22;11742;53.532;-1.478;2023-05-07T07:15:19;18.50;89.00
23147;DHT22;11742;53.532;-1.478;2023-05-07T07:18:04;18.50;89.00
23147;DHT22;11742;53.532;-1.478;2023-05-07T07:20:48;18.50;89.20
23147;DHT22;11742;53.532;-1.478;2023-05-07T07:23:33;18.50;89.20
23147;DHT22;11742;53.532;-1.478;2023-05-07T07:26:18;18.50;89.10
23147;DHT22;11742;53.532;-1.478;2023-05-07T07:29:02;18.50;89.20
23147;DHT22;11742;53.532;-1.478;2023-05-07T07:31:47;18.50;89.20
23147;DHT22;11742;53.532;-1.478;2023-05-07T07:34:31;18.50;89.20
23147;DHT22;11742;53.532;-1.478;2023-05-07T07:37:15;18.60;89.30
23147;DHT22;11742;53.532;-1.478;2023-05-07T07:40:00;18.50;89.20
23147;DHT22;11742;53.532;-1.478;2023-05-07T07:42:44;18.60;89.30
23147;DHT22;11742;53.532;-1.478;2023-05-07T07:45:28;18.60;89.30
23147;DHT22;11742;53.532;-1.478;2023-05-07T07:48:12;18.60;89.40
23147;DHT22;11742;53.532;-1.478;2023-05-07T07:50:56;18.60;89.40
23147;DHT22;11742;53.532;-1.478;2023-05-07T07:53:41;18.60;89.40
23147;DHT22;11742;53.532;-1.478;2023-05-07T07:56:25;18.60;89.30
23147;DHT22;11742;53.532;-1.478;2023-05-07T07:59:09;18.70;89.70
23147;DHT22;11742;53.532;-1.478;2023-05-07T08:01:53;18.70;89.80
23147;DHT22;11742;53.532;-1.478;2023-05-07T08:04:40;18.70;90.00
23147;DHT22;11742;53.532;-1.478;2023-05-07T08:07:25;18.70;90.20
23147;DHT22;11742;53.532;-1.478;2023-05-07T08:10:09;18.70;90.40
23147;DHT22;11742;53.532;-1.478;2023-05-07T08:12:53;18.70;90.40
23147;DHT22;11742;53.532;-1.478;2023-05-07T08:15:38;18.70;90.70
23147;DHT22;11742;53.532;-1.478;2023-05-07T08:18:22;18.80;91.20
23147;DHT22;11742;53.532;-1.478;2023-05-07T08:21:08;18.80;91.80
23147;DHT22;11742;53.532;-1.478;2023-05-07T08:23:53;18.90;91.60
23147;DHT22;11742;53.532;-1.478;2023-05-07T08:26:37;18.90;91.20
23147;DHT22;11742;53.532;-1.478;2023-05-07T08:29:23;18.90;90.60
23147;DHT22;11742;53.532;-1.478;2023-05-07T08:32:07;18.90;89.80
23147;DHT22;11742;53.532;-1.478;2023-05-07T08:34:51;18.90;88.60
23147;DHT22;11742;53.532;-1.478;2023-05-07T08:37:36;19.00;88.50
23147;DHT22;11742;53.532;-1.478;2023-05-07T08:40:21;19.10;88.30
23147;DHT22;11742;53.532;-1.478;2023-05-07T08:43:08;19.10;89.30
23147;DHT22;11742;53.532;-1.478;2023-05-07T08:45:56;19.20;88.60
23147;DHT22;11742;53.532;-1.478;2023-05-07T08:48:41;19.30;90.20
23147;DHT22;11742;53.532;-1.478;2023-05-07T08:51:25;19.30;89.90
23147;DHT22;11742;53.532;-1.478;2023-05-07T08:54:09;19.40;91.10
23147;DHT22;11742;53.532;-1.478;2023-05-07T08:56:54;19.50;91.50
23147;DHT22;11742;53.532;-1.478;2023-05-07T08:59:39;19.50;91.60
23147;DHT22;11742;53.532;-1.478;2023-05-07T09:02:24;19.60;91.30
23147;DHT22;11742;53.532;-1.478;2023-05-07T09:05:08;19.60;90.90
23147;DHT22;11742;53.532;-1.478;2023-05-07T09:07:52;19.60;90.90
23147;DHT22;11742;53.532;-1.478;2023-05-07T09:10:36;19.70;90.10
23147;DHT22;11742;53.532;-1.478;2023-05-07T09:13:21;19.70;89.30
23147;DHT22;11742;53.532;-1.478;2023-05-07T09:16:11;19.80;88.90
23147;DHT22;11742;53.532;-1.478;2023-05-07T09:18:57;19.80;88.60
23147;DHT22;11742;53.532;-1.478;2023-05-07T09:21:42;19.90;88.80
23147;DHT22;11742;53.532;-1.478;2023-05-07T09:24:26;20.00;88.90
23147;DHT22;11742;53.532;-1.478;2023-05-07T09:27:12;20.00;88.80
23147;DHT22;11742;53.532;-1.478;2023-05-07T09:29:57;20.10;88.80
23147;DHT22;11742;53.532;-1.478;2023-05-07T09:32:41;20.20;88.90
23147;DHT22;11742;53.532;-1.478;2023-05-07T09:35:25;20.20;88.90
23147;DHT22;11742;53.532;-1.478;2023-05-07T09:38:13;20.30;90.10
23147;DHT22;11742;53.532;-1.478;2023-05-07T09:41:07;20.30;90.60
23147;DHT22;11742;53.532;-1.478;2023-05-07T09:43:54;20.40;90.80
23147;DHT22;11742;53.532;-1.478;2023-05-07T09:46:39;20.40;90.70
23147;DHT22;11742;53.532;-1.478;2023-05-07T09:49:27;20.50;90.70
23147;DHT22;11742;53.532;-1.478;2023-05-07T09:52:13;20.50;90.70
23147;DHT22;11742;53.532;-1.478;2023-05-07T09:54:57;20.50;90.90
23147;DHT22;11742;53.532;-1.478;2023-05-07T09:57:43;20.60;90.50
23147;DHT22;11742;53.532;-1.478;2023-05-07T10:00:28;20.60;90.30
23147;DHT22;11742;53.532;-1.478;2023-05-07T10:03:12;20.70;90.20
23147;DHT22;11742;53.532;-1.478;2023-05-07T10:05:58;20.70;90.10
23147;DHT22;11742;53.532;-1.478;2023-05-07T10:08:42;20.70;90.10
23147;DHT22;11742;53.532;-1.478;2023-05-07T10:11:27;20.80;90.20
23147;DHT22;11742;53.532;-1.478;2023-05-07T10:14:11;20.80;90.00
23147;DHT22;11742;53.532;-1.478;2023-05-07T10:16:56;20.90;90.10
23147;DHT22;11742;53.532;-1.478;2023-05-07T10:19:41;20.90;90.10
23147;DHT22;11742;53.532;-1.478;2023-05-07T10:22:26;21.00;90.00
23147;DHT22;11742;53.532;-1.478;2023-05-07T10:25:18;21.00;89.80
23147;DHT22;11742;53.532;-1.478;2023-05-07T10:28:05;21.00;89.30
23147;DHT22;11742;53.532;-1.478;2023-05-07T10:31:15;21.20;89.20
23147;DHT22;11742;53.532;-1.478;2023-05-07T10:33:54;21.20;89.80
23147;DHT22;11742;53.532;-1.478;2023-05-07T10:36:39;21.30;90.00
23147;DHT22;11742;53.532;-1.478;2023-05-07T10:39:23;21.30;90.00
23147;DHT22;11742;53.532;-1.478;2023-05-07T10:42:08;21.30;89.30
23147;DHT22;11742;53.532;-1.478;2023-05-07T10:44:53;21.40;89.30
23147;DHT22;11742;53.532;-1.478;2023-05-07T10:47:44;21.40;89.10
23147;DHT22;11742;53.532;-1.478;2023-05-07T10:50:42;21.50;89.20
23147;DHT22;11742;53.532;-1.478;2023-05-07T10:53:26;21.60;89.40
23147;DHT22;11742;53.532;-1.478;2023-05-07T11:02:11;21.80;89.30
23147;DHT22;11742;53.532;-1.478;2023-05-07T11:08:01;22.00;89.50
23147;DHT22;11742;53.532;-1.478;2023-05-07T11:10:56;22.10;89.50
23147;DHT22;11742;53.532;-1.478;2023-05-07T11:13:48;22.20;89.70
23147;DHT22;11742;53.532;-1.478;2023-05-07T11:16:33;22.20;88.80
23147;DHT22;11742;53.532;-1.478;2023-05-07T11:19:47;22.30;88.90
23147;DHT22;11742;53.532;-1.478;2023-05-07T11:25:18;22.40;89.00
23147;DHT22;11742;53.532;-1.478;2023-05-07T11:28:06;22.50;89.00
23147;DHT22;11742;53.532;-1.478;2023-05-07T11:30:50;22.60;89.00
23147;DHT22;11742;53.532;-1.478;2023-05-07T11:33:35;22.70;88.90
23147;DHT22;11742;53.532;-1.478;2023-05-07T11:36:21;22.80;89.00
23147;DHT22;11742;53.532;-1.478;2023-05-07T11:39:06;22.90;89.00
23147;DHT22;11742;53.532;-1.478;2023-05-07T11:41:51;22.90;88.40
23147;DHT22;11742;53.532;-1.478;2023-05-07T11:44:42;23.00;88.60
23147;DHT22;11742;53.532;-1.478;2023-05-07T11:47:29;23.10;88.60
23147;DHT22;11742;53.532;-1.478;2023-05-07T11:50:13;23.20;88.30
23147;DHT22;11742;53.532;-1.478;2023-05-07T11:52:58;23.20;87.60
23147;DHT22;11742;53.532;-1.478;2023-05-07T11:55:42;23.30;88.00
23147;DHT22;11742;53.532;-1.478;2023-05-07T11:58:26;23.40;88.10
23147;DHT22;11742;53.532;-1.478;2023-05-07T12:01:11;23.40;88.10
23147;DHT22;11742;53.532;-1.478;2023-05-07T12:03:55;23.50;88.20
23147;DHT22;11742;53.532;-1.478;2023-05-07T12:06:40;23.60;88.20
23147;DHT22;11742;53.532;-1.478;2023-05-07T12:09:24;23.70;88.20
23147;DHT22;11742;53.532;-1.478;2023-05-07T12:12:10;23.70;88.00
23147;DHT22;11742;53.532;-1.478;2023-05-07T12:14:54;23.80;87.90
23147;DHT22;11742;53.532;-1.478;2023-05-07T12:17:39;23.90;87.80
23147;DHT22;11742;53.532;-1.478;2023-05-07T12:20:24;24.00;87.70
23147;DHT22;11742;53.532;-1.478;2023-05-07T12:23:08;24.10;87.80
23147;DHT22;11742;53.532;-1.478;2023-05-07T12:25:52;24.10;88.50
23147;DHT22;11742;53.532;-1.478;2023-05-07T12:28:37;24.20;86.30
23147;DHT22;11742;53.532;-1.478;2023-05-07T12:31:22;24.30;86.80
23147;DHT22;11742;53.532;-1.478;2023-05-07T12:34:06;24.40;87.20
23147;DHT22;11742;53.532;-1.478;2023-05-07T12:36:51;24.40;86.70
23147;DHT22;11742;53.532;-1.478;2023-05-07T12:39:35;24.50;85.90
23147;DHT22;11742;53.532;-1.478;2023-05-07T12:42:20;24.60;85.10
23147;DHT22;11742;53.532;-1.478;2023-05-07T12:45:11;24.60;85.60
23147;DHT22;11742;53.532;-1.478;2023-05-07T12:47:55;24.70;85.10
23147;DHT22;11742;53.532;-1.478;2023-05-07T12:50:40;24.80;83.20
23147;DHT22;11742;53.532;-1.478;2023-05-07T12:53:25;24.80;81.50
23147;DHT22;11742;53.532;-1.478;2023-05-07T12:56:10;24.80;79.30
23147;DHT22;11742;53.532;-1.478;2023-05-07T12:58:56;24.90;77.90
23147;DHT22;11742;53.532;-1.478;2023-05-07T13:01:41;24.90;77.60
23147;DHT22;11742;53.532;-1.478;2023-05-07T13:04:28;25.00;76.20
23147;DHT22;11742;53.532;-1.478;2023-05-07T13:07:12;25.00;76.60
23147;DHT22;11742;53.532;-1.478;2023-05-07T13:09:56;25.00;77.70
23147;DHT22;11742;53.532;-1.478;2023-05-07T13:12:40;25.10;77.80
23147;DHT22;11742;53.532;-1.478;2023-05-07T13:15:24;25.10;76.90
23147;DHT22;11742;53.532;-1.478;2023-05-07T13:18:11;25.20;76.50
23147;DHT22;11742;53.532;-1.478;2023-05-07T13:20:55;25.30;76.40
23147;DHT22;11742;53.532;-1.478;2023-05-07T13:23:39;25.30;75.90
23147;DHT22;11742;53.532;-1.478;2023-05-07T13:26:24;25.30;72.90
23147;DHT22;11742;53.532;-1.478;2023-05-07T13:29:09;25.20;71.20
23147;DHT22;11742;53.532;-1.478;2023-05-07T13:31:57;25.10;72.50
23147;DHT22;11742;53.532;-1.478;2023-05-07T13:34:41;25.10;73.60
23147;DHT22;11742;53.532;-1.478;2023-05-07T13:37:25;25.20;74.20
23147;DHT22;11742;53.532;-1.478;2023-05-07T13:40:09;25.30;73.80
23147;DHT22;11742;53.532;-1.478;2023-05-07T13:42:56;25.30;74.00
23147;DHT22;11742;53.532;-1.478;2023-05-07T13:45:40;25.30;74.10
23147;DHT22;11742;53.532;-1.478;2023-05-07T13:48:24;25.40;73.90
23147;DHT22;11742;53.532;-1.478;2023-05-07T13:51:09;25.40;74.40
23147;DHT22;11742;53.532;-1.478;2023-05-07T13:53:53;25.50;74.80
23147;DHT22;11742;53.532;-1.478;2023-05-07T13:56:38;25.50;74.10
23147;DHT22;11742;53.532;-1.478;2023-05-07T13:59:23;25.60;74.10
23147;DHT22;11742;53.532;-1.478;2023-05-07T14:02:07;25.60;74.60
23147;DHT22;11742;53.532;-1.478;2023-05-07T14:04:52;25.60;74.70
23147;DHT22;11742;53.532;-1.478;2023-05-07T14:07:37;25.70;74.20
23147;DHT22;11742;53.532;-1.478;2023-05-07T14:10:21;25.70;74.50
23147;DHT22;11742;53.532;-1.478;2023-05-07T14:13:05;25.80;74.60
23147;DHT22;11742;53.532;-1.478;2023-05-07T14:15:50;25.80;74.10
23147;DHT22;11742;53.532;-1.478;2023-05-07T14:18:34;25.90;74.30
23147;DHT22;11742;53.532;-1.478;2023-05-07T14:21:20;25.90;73.70
23147;DHT22;11742;53.532;-1.478;2023-05-07T14:24:06;25.90;73.50
23147;DHT22;11742;53.532;-1.478;2023-05-07T14:26:50;26.00;73.20
23147;DHT22;11742;53.532;-1.478;2023-05-07T14:29:35;26.00;73.60
23147;DHT22;11742;53.532;-1.478;2023-05-07T14:32:20;26.00;73.80
23147;DHT22;11742;53.532;-1.478;2023-05-07T14:35:04;26.00;73.40
23147;DHT22;11742;53.532;-1.478;2023-05-07T14:37:49;26.00;73.40
23147;DHT22;11742;53.532;-1.478;2023-05-07T14:40:33;26.10;73.50
23147;DHT22;11742;53.532;-1.478;2023-05-07T14:43:17;26.10;73.60
23147;DHT22;11742;53.532;-1.478;2023-05-07T14:46:01;26.10;73.70
23147;DHT22;11742;53.532;-1.478;2023-05-07T14:48:46;26.20;73.90
23147;DHT22;11742;53.532;-1.478;2023-05-07T14:51:30;26.20;74.20
23147;DHT22;11742;53.532;-1.478;2023-05-07T14:54:14;26.20;74.30
23147;DHT22;11742;53.532;-1.478;2023-05-07T14:56:58;26.30;74.60
23147;DHT22;11742;53.532;-1.478;2023-05-07T14:59:42;26.30;73.80
23147;DHT22;11742;53.532;-1.478;2023-05-07T15:02:27;26.30;73.30
23147;DHT22;11742;53.532;-1.478;2023-05-07T15:05:11;26.40;73.20
23147;DHT22;11742;53.532;-1.478;2023-05-07T15:07:55;26.40;73.00
23147;DHT22;11742;53.532;-1.478;2023-05-07T15:10:39;26.40;72.10
23147;DHT22;11742;53.532;-1.478;2023-05-07T15:13:27;26.30;66.30
23147;DHT22;11742;53.532;-1.478;2023-05-07T15:16:11;26.30;69.00
23147;DHT22;11742;53.532;-1.478;2023-05-07T15:18:55;26.20;70.70
23147;DHT22;11742;53.532;-1.478;2023-05-07T15:21:39;26.20;71.60
23147;DHT22;11742;53.532;-1.478;2023-05-07T15:24:24;26.20;72.10
23147;DHT22;11742;53.532;-1.478;2023-05-07T15:27:08;26.30;72.50
23147;DHT22;11742;53.532;-1.478;2023-05-07T15:29:52;26.20;72.30
23147;DHT22;11742;53.532;-1.478;2023-05-07T15:32:37;26.20;72.20
23147;DHT22;11742;53.532;-1.478;2023-05-07T15:35:22;26.20;72.20
23147;DHT22;11742;53.532;-1.478;2023-05-07T15:38:06;26.30;72.50
23147;DHT22;11742;53.532;-1.478;2023-05-07T15:40:52;26.30;72.30
23147;DHT22;11742;53.532;-1.478;2023-05-07T15:43:43;26.20;66.70
23147;DHT22;11742;53.532;-1.478;2023-05-07T15:46:27;26.20;69.00
23147;DHT22;11742;53.532;-1.478;2023-05-07T15:49:11;26.20;70.00
23147;DHT22;11742;53.532;-1.478;2023-05-07T15:51:55;26.20;70.40
23147;DHT22;11742;53.532;-1.478;2023-05-07T15:54:41;26.20;70.60
23147;DHT22;11742;53.532;-1.478;2023-05-07T15:57:25;26.20;70.80
23147;DHT22;11742;53.532;-1.478;2023-05-07T16:00:10;26.20;71.10
23147;DHT22;11742;53.532;-1.478;2023-05-07T16:02:55;26.20;71.20
23147;DHT22;11742;53.532;-1.478;2023-05-07T16:05:39;26.20;71.40
23147;DHT22;11742;53.532;-1.478;2023-05-07T16:08:24;26.30;71.40
23147;DHT22;11742;53.532;-1.478;2023-05-07T16:11:08;26.30;71.40
23147;DHT22;11742;53.532;-1.478;2023-05-07T16:13:52;26.30;71.80
23147;DHT22;11742;53.532;-1.478;2023-05-07T16:16:36;26.30;71.90
23147;DHT22;11742;53.532;-1.478;2023-05-07T16:19:23;26.30;72.10
23147;DHT22;11742;53.532;-1.478;2023-05-07T16:22:08;26.40;72.00
23147;DHT22;11742;53.532;-1.478;2023-05-07T16:24:52;26.40;71.90
23147;DHT22;11742;53.532;-1.478;2023-05-07T16:27:36;26.40;71.70
23147;DHT22;11742;53.532;-1.478;2023-05-07T16:30:20;26.40;71.60
23147;DHT22;11742;53.532;-1.478;2023-05-07T16:33:05;26.40;71.20
23147;DHT22;11742;53.532;-1.478;2023-05-07T16:35:52;26.40;71.20
23147;DHT22;11742;53.532;-1.478;2023-05-07T16:38:37;26.40;71.20
23147;DHT22;11742;53.532;-1.478;2023-05-07T16:41:21;26.40;71.20
23147;DHT22;11742;53.532;-1.478;2023-05-07T16:44:06;26.40;71.40
23147;DHT22;11742;53.532;-1.478;2023-05-07T16:46:52;26.50;71.40
23147;DHT22;11742;53.532;-1.478;2023-05-07T16:49:36;26.50;71.00
23147;DHT22;11742;53.532;-1.478;2023-05-07T16:52:20;26.50;70.60
23147;DHT22;11742;53.532;-1.478;2023-05-07T16:55:05;26.50;70.00
23147;DHT22;11742;53.532;-1.478;2023-05-07T16:57:49;26.50;69.80
23147;DHT22;11742;53.532;-1.478;2023-05-07T17:00:33;26.50;69.90
23147;DHT22;11742;53.532;-1.478;2023-05-07T17:03:18;26.50;70.00
23147;DHT22;11742;53.532;-1.478;2023-05-07T17:06:02;26.50;70.00
23147;DHT22;11742;53.532;-1.478;2023-05-07T17:08:46;26.50;70.10
23147;DHT22;11742;53.532;-1.478;2023-05-07T17:11:31;26.50;70.00
23147;DHT22;11742;53.532;-1.478;2023-05-07T17:14:16;26.50;70.00
23147;DHT22;11742;53.532;-1.478;2023-05-07T17:17:01;26.50;69.90
23147;DHT22;11742;53.532;-1.478;2023-05-07T17:19:45;26.60;69.60